Time;durP1;ratioP1;P1;durP2;ratioP2;P2;SDS_P1;SDS_P2;PMS_P1;PMS_P2;Temp;Humidity;BMP_temperature;BMP_pressure;BME280_temperature;BME280_humidity;BME280_pressure;Samples;Min_cycle;Max_cycle;Signal;HPM_P1;HPM_P2
2022/05/09 00:01:00;;;;;;;3.85;3.00;;;24.20;47.00;;;;;;4986736;28;20365;-42
2022/05/09 00:03:25;;;;;;;3.80;2.60;;;24.20;47.10;;;;;;4985861;28;20097;-43
2022/05/09 00:05:51;;;;;;;3.80;2.75;;;24.20;47.20;;;;;;4986945;28;20060;-42
2022/05/09 00:08:17;;;;;;;4.35;3.17;;;24.20;47.10;;;;;;4987024;28;20030;-42
2022/05/09 00:10:43;;;;;;;3.92;2.97;;;24.20;47.20;;;;;;4986658;28;20084;-42
2022/05/09 00:13:08;;;;;;;3.80;2.90;;;24.20;47.20;;;;;;4986551;28;20031;-42
2022/05/09 00:15:34;;;;;;;3.72;2.80;;;24.20;47.20;;;;;;4986312;28;20191;-43
2022/05/09 00:18:00;;;;;;;3.53;2.60;;;24.10;47.20;;;;;;4985949;28;20025;-42
2022/05/09 00:20:25;;;;;;;3.67;2.75;;;24.20;47.20;;;;;;4986362;28;20026;-42
2022/05/09 00:22:54;;;;;;;4.00;3.00;;;24.10;47.20;;;;;;4986563;28;20106;-42
2022/05/09 00:25:22;;;;;;;3.50;2.53;;;24.20;47.10;;;;;;4986799;28;20065;-43
2022/05/09 00:27:48;;;;;;;3.70;2.83;;;24.10;47.10;;;;;;4986249;28;20030;-43
2022/05/09 00:30:14;;;;;;;4.03;2.80;;;24.20;47.10;;;;;;4986575;28;20430;-42
2022/05/09 00:32:40;;;;;;;3.78;2.72;;;24.10;47.10;;;;;;4985901;28;20030;-42
2022/05/09 00:35:08;;;;;;;3.70;2.90;;;24.10;47.10;;;;;;4986355;28;20529;-42
2022/05/09 00:37:34;;;;;;;4.32;3.17;;;24.10;47.00;;;;;;4986401;28;20106;-43
2022/05/09 00:40:00;;;;;;;3.47;2.35;;;24.10;47.70;;;;;;4986237;28;20030;-42
2022/05/09 00:42:26;;;;;;;3.53;2.75;;;24.10;47.00;;;;;;4985440;28;20041;-43
2022/05/09 00:44:51;;;;;;;3.97;2.55;;;24.10;47.00;;;;;;4986411;28;20023;-42
2022/05/09 00:47:18;;;;;;;3.53;2.65;;;24.10;47.00;;;;;;4985948;28;20030;-42
2022/05/09 00:49:50;;;;;;;3.33;2.25;;;24.10;47.00;;;;;;4985981;28;20061;-42
2022/05/09 00:52:26;;;;;;;;;;;24.10;47.00;;;;;;4983314;28;20034;-43
2022/05/09 00:55:06;;;;;;;3.05;2.25;;;24.10;47.00;;;;;;4985017;28;19910;-42
2022/05/09 00:57:53;;;;;;;3.40;2.42;;;24.10;47.00;;;;;;4984297;28;20026;-42
2022/05/09 01:00:22;;;;;;;3.70;2.72;;;24.10;47.00;;;;;;4983825;28;20434;-42
2022/05/09 01:02:59;;;;;;;3.75;2.85;;;24.10;47.00;;;;;;4984601;28;20027;-42
2022/05/09 01:05:25;;;;;;;3.10;2.45;;;24.10;47.10;;;;;;4985640;28;20085;-42
2022/05/09 01:07:53;;;;;;;3.55;2.70;;;24.00;47.00;;;;;;4983713;28;20548;-42
2022/05/09 01:10:25;;;;;;;3.28;2.50;;;24.00;47.00;;;;;;4984394;28;20038;-42
2022/05/09 01:12:52;;;;;;;4.03;2.45;;;24.00;47.00;;;;;;4984270;28;20061;-42
2022/05/09 01:15:17;;;;;;;4.78;2.80;;;24.00;47.00;;;;;;4985540;28;20046;-43
2022/05/09 01:17:50;;;;;;;5.25;3.00;;;24.00;47.00;;;;;;4985461;28;20110;-42
2022/05/09 01:20:17;;;;;;;3.33;2.40;;;24.00;47.00;;;;;;4984257;28;20022;-42
2022/05/09 01:22:44;;;;;;;3.67;2.85;;;24.00;46.90;;;;;;4985427;28;20101;-42
2022/05/09 01:25:14;;;;;;;3.72;2.80;;;24.00;46.80;;;;;;4985210;28;20026;-42
2022/05/09 01:27:42;;;;;;;3.88;2.92;;;24.00;46.80;;;;;;4985533;28;20053;-43
2022/05/09 01:30:32;;;;;;;3.40;2.42;;;24.00;46.80;;;;;;4984920;28;20073;-42
2022/05/09 01:33:07;;;;;;;4.15;2.50;;;24.00;46.80;;;;;;4983420;28;20130;-42
2022/05/09 01:35:42;;;;;;;3.80;2.67;;;24.00;46.80;;;;;;4984585;28;20038;-42
2022/05/09 01:38:26;;;;;;;3.28;2.50;;;24.00;46.80;;;;;;4983939;28;20538;-43
2022/05/09 01:40:52;;;;;;;3.67;2.60;;;24.00;46.80;;;;;;4983114;28;20034;-43
2022/05/09 01:43:42;;;;;;;4.10;3.10;;;24.00;46.80;;;;;;4985143;28;20380;-42
2022/05/09 01:46:15;;;;;;;5.00;2.80;;;24.00;46.80;;;;;;4984828;28;20034;-42
2022/05/09 01:51:26;;;;;;;3.42;2.63;;;24.00;47.00;;;;;;4984020;28;20046;-42
2022/05/09 01:53:53;;;;;;;3.67;2.70;;;24.00;47.00;;;;;;4984369;28;20026;-42
2022/05/09 01:56:21;;;;;;;3.13;2.20;;;24.00;46.90;;;;;;4983262;28;20023;-42
2022/05/09 01:58:47;;;;;;;3.35;2.58;;;23.90;47.00;;;;;;4983980;28;20030;-42
2022/05/09 02:01:16;;;;;;;3.45;2.53;;;24.00;46.90;;;;;;4983199;28;20101;-42
2022/05/09 02:03:44;;;;;;;3.92;2.78;;;24.00;46.90;;;;;;4984790;28;20252;-42
2022/05/09 02:06:10;;;;;;;4.35;2.88;;;24.00;46.90;;;;;;4984711;28;20026;-42
2022/05/09 02:08:36;;;;;;;3.88;2.70;;;24.00;46.80;;;;;;4984672;28;20049;-42
2022/05/09 02:11:02;;;;;;;3.72;2.72;;;23.90;46.80;;;;;;4985033;28;20143;-43
2022/05/09 02:13:28;;;;;;;3.60;2.50;;;23.90;46.80;;;;;;4984370;28;20081;-42
2022/05/09 02:15:54;;;;;;;3.50;2.55;;;24.00;46.80;;;;;;4983980;28;20511;-42
2022/05/09 02:18:19;;;;;;;3.70;2.78;;;23.90;46.80;;;;;;4984702;28;20530;-42
2022/05/09 02:20:46;;;;;;;3.58;2.53;;;23.90;46.80;;;;;;4984759;28;20081;-42
2022/05/09 02:23:14;;;;;;;3.88;3.00;;;23.90;46.80;;;;;;4983954;28;20023;-42
2022/05/09 02:25:42;;;;;;;3.40;2.65;;;23.90;46.80;;;;;;4983757;28;20030;-42
2022/05/09 02:28:09;;;;;;;3.38;2.67;;;23.90;46.80;;;;;;4984639;28;20518;-42
2022/05/09 02:30:36;;;;;;;3.53;2.65;;;23.90;46.70;;;;;;4985156;28;20035;-42
2022/05/09 02:33:03;;;;;;;3.30;2.40;;;23.90;46.80;;;;;;4986987;28;20049;-42
2022/05/09 02:35:29;;;;;;;3.50;2.65;;;23.90;46.80;;;;;;4988779;28;20019;-43
2022/05/09 02:37:55;;;;;;;3.78;2.67;;;23.90;46.80;;;;;;4988134;28;20050;-42
2022/05/09 02:40:24;;;;;;;3.42;2.40;;;23.90;46.80;;;;;;4988369;28;20069;-42
2022/05/09 02:42:49;;;;;;;5.07;2.60;;;23.90;46.90;;;;;;4988283;28;20517;-42
2022/05/09 02:45:15;;;;;;;3.22;2.40;;;23.90;46.80;;;;;;4988408;28;20030;-42
2022/05/09 02:47:41;;;;;;;3.58;2.58;;;23.90;46.80;;;;;;4988555;28;20076;-43
2022/05/09 02:50:09;;;;;;;3.47;2.60;;;23.90;46.80;;;;;;4988337;28;20022;-43
2022/05/09 02:52:36;;;;;;;3.85;2.80;;;23.90;46.80;;;;;;4988592;28;20030;-42
2022/05/09 02:55:04;;;;;;;3.10;2.25;;;23.90;46.70;;;;;;4986934;28;20034;-42
2022/05/09 02:57:30;;;;;;;3.53;2.47;;;23.90;46.70;;;;;;4987973;28;20019;-42
2022/05/09 02:59:55;;;;;;;3.22;2.47;;;23.90;46.70;;;;;;4987586;28;20467;-42
2022/05/09 03:02:21;;;;;;;3.75;2.60;;;23.90;46.70;;;;;;4985771;28;20568;-43
2022/05/09 03:04:48;;;;;;;3.30;2.45;;;23.80;46.60;;;;;;4987466;28;20033;-42
2022/05/09 03:07:16;;;;;;;3.30;2.50;;;23.90;46.70;;;;;;4987883;28;20398;-42
2022/05/09 03:09:44;;;;;;;3.80;2.83;;;23.90;46.70;;;;;;4986718;28;20022;-42
2022/05/09 03:12:11;;;;;;;3.38;2.58;;;23.90;46.70;;;;;;4987821;28;20488;-42
2022/05/09 03:14:38;;;;;;;3.55;2.45;;;23.80;46.60;;;;;;4987805;28;20031;-43
2022/05/09 03:17:05;;;;;;;3.83;2.67;;;23.80;46.60;;;;;;4987507;28;20022;-42
2022/05/09 03:19:31;;;;;;;3.88;2.28;;;23.90;46.70;;;;;;4987383;28;20560;-42
2022/05/09 03:21:57;;;;;;;3.38;2.30;;;23.80;46.60;;;;;;4987333;28;20057;-42
2022/05/09 03:24:22;;;;;;;3.25;2.35;;;23.90;46.80;;;;;;4987681;28;20406;-42
2022/05/09 03:26:49;;;;;;;3.70;2.67;;;23.90;47.50;;;;;;4987165;28;20066;-43
2022/05/09 03:29:18;;;;;;;4.00;2.67;;;23.80;46.60;;;;;;4986550;28;20972;-42
2022/05/09 03:31:46;;;;;;;3.38;2.50;;;23.80;46.60;;;;;;4985638;28;20022;-42
2022/05/09 03:34:12;;;;;;;4.10;2.92;;;23.80;46.60;;;;;;4986990;28;20026;-42
2022/05/09 03:36:38;;;;;;;3.60;2.60;;;23.80;46.60;;;;;;4987456;28;20113;-42
2022/05/09 03:39:05;;;;;;;3.38;2.40;;;23.80;46.70;;;;;;4985913;28;20022;-42
2022/05/09 03:41:31;;;;;;;3.20;2.40;;;23.80;46.70;;;;;;4986748;28;20031;-43
2022/05/09 03:43:56;;;;;;;3.78;2.60;;;23.80;46.60;;;;;;4986794;28;20033;-42
2022/05/09 03:46:22;;;;;;;3.60;2.70;;;23.80;46.60;;;;;;4986684;28;20034;-43
2022/05/09 03:48:48;;;;;;;3.25;2.33;;;23.80;46.60;;;;;;4986892;28;20311;-43
2022/05/09 03:51:14;;;;;;;4.03;2.58;;;23.80;46.60;;;;;;4986754;28;20029;-42
2022/05/09 03:53:40;;;;;;;3.20;2.50;;;23.80;46.60;;;;;;4986734;28;20515;-42
2022/05/09 03:56:07;;;;;;;3.50;2.80;;;23.80;46.60;;;;;;4986892;28;20041;-42
2022/05/09 03:58:33;;;;;;;3.55;2.28;;;23.80;46.60;;;;;;4985622;28;20026;-42
2022/05/09 04:00:59;;;;;;;3.53;2.50;;;23.80;46.60;;;;;;4985334;28;20034;-42
2022/05/09 04:03:25;;;;;;;3.15;2.38;;;23.80;46.60;;;;;;4986413;28;20041;-43
2022/05/09 04:05:52;;;;;;;3.35;2.53;;;23.80;46.60;;;;;;4986435;28;20702;-42
2022/05/09 04:08:20;;;;;;;3.60;2.50;;;23.80;46.60;;;;;;4987007;28;20116;-43
2022/05/09 04:10:47;;;;;;;3.80;2.78;;;23.80;46.60;;;;;;4987261;28;20223;-42
2022/05/09 04:13:15;;;;;;;3.88;3.10;;;23.80;46.60;;;;;;4986929;28;20054;-42
2022/05/09 04:18:31;;;;;;;3.47;2.40;;;23.80;46.60;;;;;;4986862;28;20034;-42
2022/05/09 04:20:57;;;;;;;3.40;2.47;;;23.80;46.60;;;;;;4986386;28;20018;-43
2022/05/09 04:23:22;;;;;;;3.53;2.83;;;23.80;46.70;;;;;;4987099;28;20026;-43
2022/05/09 04:25:49;;;;;;;3.33;2.42;;;23.80;46.70;;;;;;4987079;28;20585;-42
2022/05/09 04:28:18;;;;;;;4.18;2.40;;;23.80;46.70;;;;;;4985506;28;20030;-42
2022/05/09 04:30:44;;;;;;;3.35;2.47;;;23.80;46.70;;;;;;4986078;28;20045;-42
2022/05/09 04:33:10;;;;;;;3.40;2.55;;;23.80;46.70;;;;;;4984604;28;20027;-42
2022/05/09 04:35:39;;;;;;;3.67;2.63;;;23.80;46.70;;;;;;4985959;28;20077;-42
2022/05/09 04:38:06;;;;;;;3.13;2.25;;;23.80;46.70;;;;;;4985864;28;20022;-42
2022/05/09 04:40:35;;;;;;;3.50;2.35;;;23.80;46.70;;;;;;4984401;28;20028;-42
2022/05/09 04:43:02;;;;;;;4.15;2.70;;;23.80;46.80;;;;;;4985405;28;20026;-43
2022/05/09 04:45:29;;;;;;;3.60;2.50;;;23.80;46.70;;;;;;4985713;28;20030;-43
2022/05/09 04:47:55;;;;;;;3.63;2.60;;;23.80;46.70;;;;;;4985514;28;20603;-43
2022/05/09 04:50:24;;;;;;;3.45;2.60;;;23.70;46.70;;;;;;4985514;28;20391;-43
2022/05/09 04:52:50;;;;;;;3.85;2.72;;;23.70;46.60;;;;;;4983343;28;20043;-43
2022/05/09 04:55:16;;;;;;;3.40;2.45;;;23.80;46.60;;;;;;4985052;28;20030;-43
2022/05/09 04:57:43;;;;;;;3.42;2.45;;;23.80;46.60;;;;;;4985702;28;20541;-43
2022/05/09 05:00:12;;;;;;;3.60;2.60;;;23.80;46.60;;;;;;4984795;28;20038;-43
2022/05/09 05:02:38;;;;;;;3.35;2.40;;;23.80;46.60;;;;;;4984999;28;20030;-42
2022/05/09 05:05:05;;;;;;;10.02;4.88;;;23.80;46.50;;;;;;4984821;28;20461;-43
2022/05/09 05:07:30;;;;;;;15.90;8.05;;;23.80;51.20;;;;;;4983045;28;20030;-43
2022/05/09 05:09:56;;;;;;;15.63;7.32;;;23.90;55.80;;;;;;4985023;28;20470;-43
2022/05/09 05:12:22;;;;;;;12.05;6.32;;;23.90;56.40;;;;;;4982699;28;20034;-43
2022/05/09 05:14:48;;;;;;;12.85;5.97;;;24.00;54.60;;;;;;4985156;28;20042;-42
2022/05/09 05:17:14;;;;;;;12.45;6.55;;;24.00;55.80;;;;;;4982649;28;20472;-43
2022/05/09 05:19:44;;;;;;;13.18;6.20;;;24.00;53.90;;;;;;4984438;28;20051;-43
2022/05/09 05:22:15;;;;;;;12.10;6.18;;;24.00;52.90;;;;;;4984081;28;20026;-43
2022/05/09 05:24:43;;;;;;;9.20;4.85;;;24.00;53.50;;;;;;4984498;28;20682;-43
2022/05/09 05:27:09;;;;;;;8.40;4.45;;;24.10;52.70;;;;;;4981787;28;20042;-43
2022/05/09 05:29:35;;;;;;;9.52;5.03;;;24.00;52.00;;;;;;4984191;28;20037;-43
2022/05/09 05:32:12;;;;;;;9.73;4.65;;;24.10;51.70;;;;;;4981796;28;20031;-43
2022/05/09 05:34:37;;;;;;;8.25;5.10;;;24.10;51.60;;;;;;4985950;28;20041;-43
2022/05/09 05:37:03;;;;;;;7.10;4.10;;;24.10;51.30;;;;;;4984844;28;20023;-43
2022/05/09 05:39:29;;;;;;;6.78;3.90;;;24.10;51.30;;;;;;4982934;28;20108;-43
2022/05/09 05:41:55;;;;;;;6.78;4.15;;;24.10;51.00;;;;;;4984753;28;20139;-42
2022/05/09 05:44:20;;;;;;;7.60;4.43;;;24.10;50.80;;;;;;4985140;28;20037;-43
2022/05/09 05:46:46;;;;;;;7.53;4.00;;;24.10;50.50;;;;;;4984922;28;20026;-43
2022/05/09 05:49:12;;;;;;;4.68;3.25;;;24.10;50.30;;;;;;4984361;28;20038;-42
2022/05/09 05:51:38;;;;;;;6.07;3.92;;;24.10;50.30;;;;;;4983672;28;20050;-43
2022/05/09 05:54:04;;;;;;;5.43;3.30;;;24.10;50.10;;;;;;4984817;28;20027;-43
2022/05/09 05:56:30;;;;;;;6.22;3.38;;;24.10;50.00;;;;;;4984083;28;20037;-43
2022/05/09 05:58:56;;;;;;;6.55;3.60;;;24.10;49.70;;;;;;4984849;28;20018;-43
2022/05/09 06:01:22;;;;;;;5.15;3.38;;;24.10;49.50;;;;;;4990005;28;20029;-43
2022/05/09 06:03:49;;;;;;;6.43;3.67;;;24.10;49.50;;;;;;4982029;28;20483;-44
2022/05/09 06:06:15;;;;;;;5.03;3.50;;;24.10;49.50;;;;;;4971977;28;21428;-43
2022/05/09 06:08:43;;;;;;;4.60;3.33;;;24.10;49.80;;;;;;4983577;28;20108;-44
2022/05/09 06:11:10;;;;;;;5.40;3.60;;;24.10;49.90;;;;;;4978564;28;20069;-44
2022/05/09 06:13:37;;;;;;;4.88;3.50;;;24.10;50.00;;;;;;4984717;28;20044;-44
2022/05/09 06:16:03;;;;;;;5.28;3.45;;;24.10;49.80;;;;;;4984085;28;20196;-43
2022/05/09 06:18:28;;;;;;;7.13;4.13;;;24.10;50.10;;;;;;4984781;28;20320;-43
2022/05/09 06:20:55;;;;;;;5.50;3.45;;;24.10;49.90;;;;;;4984292;28;20362;-44
2022/05/09 06:23:21;;;;;;;5.75;3.40;;;24.10;49.90;;;;;;4975383;28;20583;-43
2022/05/09 06:25:48;;;;;;;4.45;2.92;;;24.20;49.70;;;;;;4983049;28;20399;-44
2022/05/09 06:28:16;;;;;;;4.25;3.17;;;24.20;49.50;;;;;;4984844;28;20081;-48
2022/05/09 06:30:43;;;;;;;4.80;2.95;;;24.20;49.40;;;;;;4980949;28;20026;-44
2022/05/09 06:33:09;;;;;;;5.05;3.35;;;24.20;49.40;;;;;;4982856;28;20069;-44
2022/05/09 06:35:43;;;;;;;5.97;3.53;;;24.20;49.40;;;;;;4984232;28;20093;-44
2022/05/09 06:38:14;;;;;;;5.30;3.20;;;24.20;49.30;;;;;;4983019;28;20038;-44
2022/05/09 06:40:41;;;;;;;4.22;3.13;;;24.20;49.30;;;;;;4982074;28;20036;-45
2022/05/09 06:43:07;;;;;;;5.75;3.60;;;24.20;49.10;;;;;;4983417;28;20471;-45
2022/05/09 06:45:33;;;;;;;7.15;3.30;;;24.20;49.10;;;;;;4983438;28;20042;-44
2022/05/09 06:48:00;;;;;;;4.82;2.90;;;24.20;49.10;;;;;;4983889;28;20049;-44
2022/05/09 06:50:29;;;;;;;4.80;3.20;;;24.20;49.00;;;;;;4984184;28;20030;-45
2022/05/09 06:52:55;;;;;;;4.65;3.15;;;24.20;49.00;;;;;;4984127;28;20458;-45
2022/05/09 06:55:22;;;;;;;4.85;3.20;;;24.20;48.90;;;;;;4984946;28;20030;-45
2022/05/09 06:57:49;;;;;;;4.57;2.85;;;24.20;49.50;;;;;;4984855;28;20037;-44
2022/05/09 07:00:20;;;;;;;5.00;3.25;;;24.20;48.70;;;;;;4984211;28;20006;-44
2022/05/09 07:02:46;;;;;;;4.60;3.00;;;24.20;48.70;;;;;;4984604;28;20166;-43
2022/05/09 07:05:15;;;;;;;5.07;3.28;;;24.20;48.60;;;;;;4984643;28;20062;-44
2022/05/09 07:07:42;;;;;;;5.18;3.08;;;24.20;48.60;;;;;;4984425;28;20033;-45
2022/05/09 07:10:08;;;;;;;4.65;3.15;;;24.20;48.50;;;;;;4984430;28;20066;-44
2022/05/09 07:13:01;;;;;;;4.72;2.95;;;24.20;48.50;;;;;;4984233;28;20698;-44
2022/05/09 07:15:29;;;;;;;4.72;3.10;;;24.20;48.50;;;;;;4982113;28;20046;-44
2022/05/09 07:17:56;;;;;;;4.55;3.00;;;24.20;48.40;;;;;;4986493;28;20284;-45
2022/05/09 07:20:25;;;;;;;4.75;3.10;;;24.20;48.40;;;;;;4987794;28;20109;-44
2022/05/09 07:22:53;;;;;;;4.15;3.10;;;24.20;48.30;;;;;;4986663;28;20126;-44
2022/05/09 07:25:19;;;;;;;3.72;2.72;;;24.20;48.30;;;;;;4987078;28;20445;-44
2022/05/09 07:27:45;;;;;;;4.60;2.88;;;24.20;48.30;;;;;;4987261;28;20471;-44
2022/05/09 07:30:14;;;;;;;4.53;3.10;;;24.20;48.20;;;;;;4987243;28;20042;-45
2022/05/09 07:32:40;;;;;;;4.53;2.67;;;24.20;48.10;;;;;;4986981;28;20263;-44
2022/05/09 07:35:08;;;;;;;5.05;3.50;;;24.20;48.10;;;;;;4987183;28;20034;-44
2022/05/09 07:37:33;;;;;;;4.55;3.08;;;24.20;48.10;;;;;;4987093;28;20109;-44
2022/05/09 07:40:00;;;;;;;5.95;3.15;;;24.20;48.00;;;;;;4987778;28;20118;-44
2022/05/09 07:42:26;;;;;;;5.97;3.45;;;24.20;48.00;;;;;;4987151;28;20478;-45
2022/05/09 07:44:55;;;;;;;5.60;3.50;;;24.20;48.00;;;;;;4986860;28;20571;-45
2022/05/09 07:47:22;;;;;;;6.07;3.58;;;24.20;48.10;;;;;;4986635;28;20498;-45
2022/05/09 07:49:47;;;;;;;6.80;4.22;;;24.20;48.00;;;;;;4986967;28;20105;-44
2022/05/09 07:52:13;;;;;;;5.50;3.47;;;24.20;47.90;;;;;;4986439;28;20687;-44
2022/05/09 07:54:39;;;;;;;5.20;3.33;;;24.20;47.90;;;;;;4986688;28;20026;-45
2022/05/09 07:57:05;;;;;;;6.85;3.50;;;24.20;47.90;;;;;;4986591;28;20290;-44
2022/05/09 07:59:30;;;;;;;5.38;3.13;;;24.20;47.80;;;;;;4986654;28;20395;-44
2022/05/09 08:01:56;;;;;;;5.65;3.55;;;24.20;47.80;;;;;;4985835;28;20038;-45
2022/05/09 08:04:23;;;;;;;5.30;2.80;;;24.20;47.90;;;;;;4986657;28;20030;-44
2022/05/09 08:06:49;;;;;;;4.45;3.05;;;24.20;47.80;;;;;;4986170;28;20041;-44
2022/05/09 08:09:15;;;;;;;4.55;3.10;;;24.20;47.70;;;;;;4986715;28;20023;-45
2022/05/09 08:11:42;;;;;;;5.05;3.15;;;24.20;47.60;;;;;;4986487;28;20057;-44
2022/05/09 08:14:08;;;;;;;5.10;2.90;;;24.20;47.70;;;;;;4986690;28;20035;-44
2022/05/09 08:16:34;;;;;;;5.25;3.00;;;24.20;47.60;;;;;;4986203;28;20056;-44
2022/05/09 08:19:02;;;;;;;4.15;2.58;;;24.20;47.60;;;;;;4985995;28;20049;-44
2022/05/09 08:21:28;;;;;;;4.55;2.90;;;24.20;47.50;;;;;;4986786;28;20071;-44
2022/05/09 08:23:54;;;;;;;4.70;2.88;;;24.20;47.60;;;;;;4986343;28;20026;-44
2022/05/09 08:26:21;;;;;;;5.10;3.10;;;24.20;47.60;;;;;;4986728;28;20085;-44
2022/05/09 08:28:53;;;;;;;4.93;2.67;;;24.20;47.60;;;;;;4985570;28;20114;-44
2022/05/09 08:31:21;;;;;;;4.75;2.70;;;24.20;47.60;;;;;;4984546;28;20093;-44
2022/05/09 08:33:49;;;;;;;4.20;2.90;;;24.20;47.50;;;;;;4986769;28;20066;-44
2022/05/09 08:39:01;;;;;;;5.20;2.67;;;24.20;47.50;;;;;;4986418;28;20022;-44
2022/05/09 08:41:35;;;;;;;3.67;2.53;;;24.20;47.40;;;;;;4986322;28;20023;-44
2022/05/09 08:44:09;;;;;;;5.78;3.13;;;24.20;47.40;;;;;;4984441;28;20036;-44
2022/05/09 08:46:48;;;;;;;4.75;2.60;;;24.20;47.40;;;;;;4986239;28;20514;-44
2022/05/09 08:49:38;;;;;;;5.82;2.88;;;24.20;47.40;;;;;;4986555;28;20030;-44
2022/05/09 08:52:23;;;;;;;5.38;3.00;;;24.20;47.40;;;;;;4984718;28;20037;-44
2022/05/09 08:54:50;;;;;;;4.35;2.83;;;24.20;47.30;;;;;;4986290;28;20029;-44
2022/05/09 08:57:22;;;;;;;4.60;2.47;;;24.20;47.30;;;;;;4985617;28;20026;-44
2022/05/09 08:59:53;;;;;;;3.92;2.50;;;24.20;47.30;;;;;;4986241;28;20224;-44
2022/05/09 09:02:43;;;;;;;4.05;2.28;;;24.20;47.30;;;;;;4986266;28;20046;-44
2022/05/09 09:05:12;;;;;;;4.75;2.70;;;24.20;47.30;;;;;;4986324;28;20062;-44
2022/05/09 09:08:11;;;;;;;3.72;2.63;;;24.20;47.20;;;;;;4986078;28;20026;-44
2022/05/09 09:10:56;;;;;;;4.25;2.50;;;24.20;47.30;;;;;;4984736;28;20034;-44
2022/05/09 09:13:49;;;;;;;4.00;2.30;;;24.20;47.20;;;;;;4985709;28;20253;-44
2022/05/09 09:16:19;;;;;;;3.40;2.30;;;24.20;47.20;;;;;;4985744;28;20031;-44
2022/05/09 09:19:04;;;;;;;4.53;2.40;;;24.20;47.20;;;;;;4985266;28;20065;-44
2022/05/09 09:21:42;;;;;;;4.32;2.70;;;24.20;47.20;;;;;;4985033;28;20076;-44
2022/05/09 09:24:33;;;;;;;3.92;2.38;;;24.20;47.10;;;;;;4985322;28;20026;-44
2022/05/09 09:27:22;;;;;;;4.57;2.58;;;24.20;47.20;;;;;;4981515;28;20061;-43
2022/05/09 09:29:57;;;;;;;3.92;2.22;;;24.20;47.10;;;;;;4985073;28;20037;-44
2022/05/09 09:32:23;;;;;;;4.40;2.40;;;24.20;47.10;;;;;;4984900;28;20062;-44
2022/05/09 09:35:00;;;;;;;4.70;2.55;;;24.20;47.20;;;;;;4984237;28;20030;-44
2022/05/09 09:37:47;;;;;;;4.03;2.20;;;24.20;47.20;;;;;;4985112;28;20034;-44
2022/05/09 09:40:13;;;;;;;4.22;2.30;;;24.20;47.10;;;;;;4984166;28;20026;-44
2022/05/09 09:42:39;;;;;;;4.05;2.53;;;24.20;47.10;;;;;;4985007;28;20046;-45
2022/05/09 09:45:19;;;;;;;4.45;2.50;;;24.20;47.00;;;;;;4985029;28;20117;-44
2022/05/09 09:47:45;;;;;;;4.53;2.97;;;24.20;47.00;;;;;;4983510;28;20053;-44
2022/05/09 09:50:29;;;;;;;3.63;2.28;;;24.20;47.00;;;;;;4984988;28;20096;-44
2022/05/09 09:52:57;;;;;;;3.22;1.88;;;24.20;47.00;;;;;;4985192;28;20027;-44
2022/05/09 09:55:36;;;;;;;3.78;2.42;;;24.20;47.00;;;;;;4985041;28;20113;-44
2022/05/09 09:58:20;;;;;;;4.97;2.47;;;24.20;47.00;;;;;;4984392;28;20037;-44
2022/05/09 10:00:46;;;;;;;3.60;2.30;;;24.20;47.00;;;;;;4985138;28;20304;-44
2022/05/09 10:03:17;;;;;;;3.45;2.20;;;24.20;47.10;;;;;;4984738;28;20360;-44
2022/05/09 10:05:45;;;;;;;3.78;2.35;;;24.20;47.20;;;;;;4984854;28;20026;-44
2022/05/09 10:08:36;;;;;;;3.72;2.17;;;24.20;47.10;;;;;;4984561;28;20122;-45
2022/05/09 10:11:08;;;;;;;4.50;2.40;;;24.20;47.10;;;;;;4984006;28;20089;-44
2022/05/09 10:13:55;;;;;;;3.20;1.95;;;24.20;47.10;;;;;;4984233;28;20038;-44
2022/05/09 10:16:28;;;;;;;3.65;2.20;;;24.20;47.10;;;;;;4984416;28;20066;-44
2022/05/09 10:18:54;;;;;;;3.10;1.85;;;24.20;47.00;;;;;;4965380;28;20033;-44
2022/05/09 10:24:48;;;;;;;3.50;2.30;;;24.20;47.00;;;;;;4965481;28;20062;-48
2022/05/09 10:27:26;;;;;;;3.85;2.10;;;24.20;47.00;;;;;;4983200;28;20121;-44
2022/05/09 10:30:08;;;;;;;4.25;2.30;;;24.20;47.70;;;;;;4985213;28;20435;-44
2022/05/09 10:32:57;;;;;;;2.97;1.77;;;24.20;46.90;;;;;;4984320;28;20030;-44
2022/05/09 10:35:40;;;;;;;3.20;2.08;;;24.20;47.00;;;;;;4984845;28;20085;-44
2022/05/09 10:38:19;;;;;;;3.47;2.22;;;24.20;46.90;;;;;;4985061;28;20137;-45
2022/05/09 10:40:55;;;;;;;3.25;1.85;;;24.20;46.90;;;;;;4984443;28;20113;-43
2022/05/09 10:43:29;;;;;;;3.65;1.92;;;24.20;46.90;;;;;;4984716;28;20262;-44
2022/05/09 10:45:55;;;;;;;3.42;2.00;;;24.20;46.90;;;;;;4984788;28;20108;-44
2022/05/09 10:48:29;;;;;;;3.03;2.03;;;24.20;46.90;;;;;;4984947;28;20597;-44
2022/05/09 10:51:00;;;;;;;4.25;2.38;;;24.20;46.90;;;;;;4984523;28;20105;-44
2022/05/09 10:53:53;;;;;;;3.28;1.83;;;24.20;47.00;;;;;;4988347;28;20530;-44
2022/05/09 10:56:30;;;;;;;;;;;24.20;47.00;;;;;;4988887;28;20659;-44
2022/05/09 10:59:10;;;;;;;3.30;1.92;;;24.20;46.90;;;;;;4988480;28;19906;-44
2022/05/09 11:02:00;;;;;;;3.58;2.10;;;24.20;47.00;;;;;;4988309;28;20165;-44
2022/05/09 11:04:28;;;;;;;3.30;1.85;;;24.20;47.00;;;;;;4987747;28;20026;-45
2022/05/09 11:07:07;;;;;;;3.30;1.73;;;24.20;47.00;;;;;;4987846;28;20034;-43
2022/05/09 11:09:50;;;;;;;3.47;2.20;;;24.20;47.00;;;;;;4988078;28;20062;-44
2022/05/09 11:12:37;;;;;;;3.25;1.90;;;24.20;47.10;;;;;;4987860;28;20065;-43
2022/05/09 11:15:14;;;;;;;3.55;2.10;;;24.20;47.10;;;;;;4988204;28;20376;-44
2022/05/09 11:18:06;;;;;;;3.53;2.25;;;24.30;47.10;;;;;;4975863;28;20042;-44
2022/05/09 11:20:44;;;;;;;3.83;2.20;;;24.20;47.10;;;;;;4987572;28;20037;-44
2022/05/09 11:23:35;;;;;;;3.28;2.10;;;24.20;47.00;;;;;;4987732;28;20663;-45
2022/05/09 11:26:14;;;;;;;3.45;2.20;;;24.20;47.00;;;;;;4987653;28;20545;-44
2022/05/09 11:29:09;;;;;;;3.40;1.90;;;24.20;47.00;;;;;;4987817;28;20529;-45
2022/05/09 11:32:41;;;;;;;3.28;1.80;;;24.20;47.10;;;;;;4987347;28;20042;-44
2022/05/09 11:35:15;;;;;;;2.88;1.65;;;24.30;47.10;;;;;;4960305;28;20035;-44
2022/05/09 11:37:56;;;;;;;3.50;2.20;;;24.30;47.10;;;;;;4965289;28;20019;-43
2022/05/09 11:40:34;;;;;;;3.42;1.92;;;24.20;47.00;;;;;;4979163;28;20069;-45
2022/05/09 11:43:28;;;;;;;4.05;1.88;;;24.30;47.10;;;;;;4987086;28;20402;-44
2022/05/09 11:46:30;;;;;;;3.13;1.77;;;24.20;47.00;;;;;;4987321;28;20030;-44
2022/05/09 11:49:23;;;;;;;3.22;2.15;;;24.30;47.10;;;;;;4987354;28;20058;-44
2022/05/09 11:51:54;;;;;;;3.05;1.60;;;24.30;47.00;;;;;;4987034;28;20041;-44
2022/05/09 11:54:38;;;;;;;2.83;1.65;;;24.30;46.80;;;;;;4987333;28;20608;-44
2022/05/09 11:57:07;;;;;;;3.47;2.13;;;24.30;46.80;;;;;;4986945;28;20026;-44
2022/05/09 11:59:34;;;;;;;3.70;1.90;;;24.30;46.90;;;;;;4986833;28;20454;-44
2022/05/09 12:02:04;;;;;;;4.22;2.22;;;24.30;46.90;;;;;;4986558;28;20084;-44
2022/05/09 12:04:34;;;;;;;3.17;1.92;;;24.30;46.70;;;;;;4987064;28;20073;-44
2022/05/09 12:07:01;;;;;;;3.50;1.90;;;24.30;46.70;;;;;;4987133;28;20037;-44
2022/05/09 12:09:56;;;;;;;3.13;1.80;;;24.30;46.80;;;;;;4987200;28;20259;-44
2022/05/09 12:12:37;;;;;;;4.10;2.28;;;24.40;46.90;;;;;;4986766;28;20113;-44
2022/05/09 12:15:06;;;;;;;2.70;1.60;;;24.40;46.90;;;;;;4986286;28;20510;-45
2022/05/09 12:17:41;;;;;;;2.42;1.50;;;24.40;46.80;;;;;;4986149;28;20031;-44
2022/05/09 12:20:35;;;;;;;2.70;1.70;;;24.40;46.80;;;;;;4987177;28;20026;-44
2022/05/09 12:23:11;;;;;;;3.72;1.65;;;24.50;46.90;;;;;;4986805;28;20105;-44
2022/05/09 12:25:38;;;;;;;3.63;1.98;;;24.50;46.80;;;;;;4986557;28;20092;-44
2022/05/09 12:28:22;;;;;;;3.03;1.85;;;24.50;46.80;;;;;;4986221;28;20034;-44
2022/05/09 12:30:48;;;;;;;2.63;1.65;;;24.50;46.70;;;;;;4984928;28;20034;-44
2022/05/09 12:33:17;;;;;;;2.95;1.67;;;24.50;46.60;;;;;;4986235;28;20088;-44
2022/05/09 12:35:44;;;;;;;3.35;1.60;;;24.50;46.60;;;;;;4986150;28;20386;-44
2022/05/09 12:38:13;;;;;;;3.00;1.63;;;24.50;46.60;;;;;;4986392;28;20101;-44
2022/05/09 12:40:40;;;;;;;2.17;1.48;;;24.60;46.50;;;;;;4985320;28;20041;-43
2022/05/09 12:43:08;;;;;;;3.00;1.90;;;24.60;46.40;;;;;;4986413;28;20659;-44
2022/05/09 12:45:38;;;;;;;3.28;2.00;;;24.60;46.30;;;;;;4986168;28;20062;-44
2022/05/09 12:48:03;;;;;;;4.30;1.75;;;24.50;46.30;;;;;;4985724;28;20034;-44
2022/05/09 12:50:31;;;;;;;7.30;1.92;;;24.60;46.40;;;;;;4985884;28;20088;-43
2022/05/09 12:53:01;;;;;;;3.40;1.75;;;24.60;46.30;;;;;;4985735;28;20038;-43
2022/05/09 12:59:10;;;;;;;6.25;2.10;;;24.60;46.90;;;;;;4979021;28;20029;-43
2022/05/09 13:01:41;;;;;;;5.03;1.77;;;24.60;47.40;;;;;;4980318;28;20049;-44
2022/05/09 13:04:33;;;;;;;3.47;1.65;;;24.60;47.10;;;;;;4984132;28;20030;-44
2022/05/09 13:07:07;;;;;;;3.20;1.60;;;24.60;47.00;;;;;;4985795;28;20557;-43
2022/05/09 13:09:45;;;;;;;4.18;2.00;;;24.60;47.00;;;;;;4985455;28;20031;-44
2022/05/09 13:12:18;;;;;;;3.15;1.80;;;24.60;47.00;;;;;;4984733;28;20023;-43
2022/05/09 13:14:49;;;;;;;;;;;24.60;47.30;;;;;;4970909;28;20084;-43
2022/05/09 13:17:22;;;;;;;2.83;1.73;;;24.60;47.10;;;;;;4980535;28;20655;-43
2022/05/09 13:19:50;;;;;;;3.72;1.95;;;24.60;47.40;;;;;;4985263;28;20042;-44
2022/05/09 13:22:41;;;;;;;3.58;1.80;;;24.60;47.80;;;;;;4985000;28;20368;-44